Time,TemperatureF,DewpointF,PressureIn,WindDirection,WindDirectionDegrees,WindSpeedMPH,WindSpeedGustMPH,Humidity,HourlyPrecipIn,Conditions,Clouds,dailyrainin,SolarRadiationWatts/m^2,SoftwareType,DateUTC
2013-06-23 00:00:00,69.5,67.4,29.70,East,90,4.0,5.0,93,0.00,,SKC,0.00,0.00,VWS V14.00,2013-06-23 05:00:00,
2013-06-23 00:03:00,69.5,67.4,29.70,East,90,4.0,5.0,93,0.00,,SKC,0.00,0.00,VWS V14.00,2013-06-23 05:03:00,
2013-06-23 00:05:00,69.5,67.4,29.69,East,90,3.0,9.0,93,0.00,,SKC,0.00,0.00,VWS V14.00,2013-06-23 05:05:00,
2013-06-23 00:08:00,69.5,67.4,29.69,ESE,103,3.0,3.0,93,0.00,,SKC,0.00,0.00,VWS V14.00,2013-06-23 05:08:00,
2013-06-23 00:10:00,69.5,67.4,29.68,East,88,5.0,8.0,93,0.00,,SKC,0.00,0.00,VWS V14.00,2013-06-23 05:10:00,
2013-06-23 00:13:00,69.4,67.3,29.67,East,98,4.0,5.0,93,0.00,,SKC,0.00,0.00,VWS V14.00,2013-06-23 05:13:00,
2013-06-23 00:15:00,69.4,67.3,29.66,East,101,10.0,10.0,93,0.00,,SKC,0.00,0.00,VWS V14.00,2013-06-23 05:15:00,
2013-06-23 00:20:00,69.4,67.3,29.65,East,90,5.0,14.0,93,0.00,,SKC,0.00,0.00,VWS V14.00,2013-06-23 05:20:00,
2013-06-23 00:25:00,69.3,67.5,29.65,East,90,5.0,10.0,94,0.00,,SKC,0.00,0.00,VWS V14.00,2013-06-23 05:25:00,
2013-06-23 00:30:00,69.4,67.6,29.66,East,90,5.0,11.0,94,0.00,,SKC,0.00,0.00,VWS V14.00,2013-06-23 05:30:00,
2013-06-23 00:35:00,69.4,67.6,29.66,East,90,4.0,11.0,94,0.00,,SKC,0.00,0.00,VWS V14.00,2013-06-23 05:35:00,
2013-06-23 00:40:00,69.5,67.7,29.66,ESE,112,4.0,11.0,94,0.00,,SKC,0.00,0.00,VWS V14.00,2013-06-23 05:40:00,
2013-06-23 00:45:00,69.6,67.8,29.66,East,90,5.0,9.0,94,0.00,,SKC,0.00,0.00,VWS V14.00,2013-06-23 05:45:00,
2013-06-23 00:50:00,69.7,67.9,29.66,East,90,4.0,8.0,94,0.00,,SKC,0.00,0.00,VWS V14.00,2013-06-23 05:50:00,
2013-06-23 00:55:00,69.7,67.9,29.66,East,90,5.0,13.0,94,0.00,,SKC,0.00,0.00,VWS V14.00,2013-06-23 05:55:00,
2013-06-23 01:00:00,69.7,67.6,29.66,ESE,112,3.0,10.0,93,0.00,,SKC,0.00,0.00,VWS V14.00,2013-06-23 06:00:00,
2013-06-23 01:05:00,69.8,67.7,29.66,ESE,112,5.0,9.0,93,0.00,,SKC,0.00,0.00,VWS V14.00,2013-06-23 06:05:00,
2013-06-23 01:10:00,69.8,67.7,29.66,ESE,112,7.0,12.0,93,0.00,,SKC,0.00,0.00,VWS V14.00,2013-06-23 06:10:00,
2013-06-23 01:15:00,69.8,67.7,29.67,ESE,112,8.0,15.0,93,0.00,,SKC,0.00,0.00,VWS V14.00,2013-06-23 06:15:00,
2013-06-23 01:20:00,70.0,67.9,29.67,ESE,112,9.0,16.0,93,0.00,,SKC,0.00,0.00,VWS V14.00,2013-06-23 06:20:00,
2013-06-23 01:25:00,70.0,67.9,29.66,ESE,112,9.0,15.0,93,0.00,,SKC,0.00,0.00,VWS V14.00,2013-06-23 06:25:00,
2013-06-23 01:30:00,70.1,68.0,29.67,ESE,112,8.0,14.0,93,0.00,,SKC,0.00,0.00,VWS V14.00,2013-06-23 06:30:00,
2013-06-23 01:35:00,70.0,67.9,29.67,ESE,112,7.0,12.0,93,0.00,,SKC,0.00,0.00,VWS V14.00,2013-06-23 06:35:00,
2013-06-23 01:40:00,69.9,67.8,29.67,ESE,112,7.0,11.0,93,0.00,,SKC,0.00,0.00,VWS V14.00,2013-06-23 06:40:00,
2013-06-23 01:45:00,69.9,68.1,29.68,SE,135,6.0,10.0,94,0.00,,SKC,0.00,0.00,VWS V14.00,2013-06-23 06:45:00,
2013-06-23 01:50:00,69.8,68.0,29.68,SE,135,5.0,10.0,94,0.01,,SKC,0.01,0.00,VWS V14.00,2013-06-23 06:50:00,
2013-06-23 01:55:00,69.7,67.9,29.68,SE,135,5.0,10.0,94,0.02,,SKC,0.02,0.00,VWS V14.00,2013-06-23 06:55:00,
2013-06-23 02:00:00,69.7,68.2,29.68,SE,135,5.0,10.0,95,0.03,,SKC,0.03,0.00,VWS V14.00,2013-06-23 07:00:00,
2013-06-23 02:05:00,69.6,68.1,29.67,SE,135,3.0,6.0,95,0.03,,SKC,0.03,0.00,VWS V14.00,2013-06-23 07:05:00,
2013-06-23 02:10:00,69.5,68.0,29.68,ESE,112,3.0,5.0,95,0.04,,SKC,0.04,0.00,VWS V14.00,2013-06-23 07:10:00,
2013-06-23 02:15:00,69.5,68.0,29.67,SE,135,3.0,5.0,95,0.04,,SKC,0.04,0.00,VWS V14.00,2013-06-23 07:15:00,
2013-06-23 02:20:00,69.4,67.9,29.67,ESE,112,3.0,6.0,95,0.04,,SKC,0.04,0.00,VWS V14.00,2013-06-23 07:20:00,
2013-06-23 02:25:00,69.3,67.8,29.66,East,90,3.0,6.0,95,0.05,,SKC,0.05,0.00,VWS V14.00,2013-06-23 07:25:00,
2013-06-23 02:30:00,69.3,68.1,29.65,East,90,4.0,11.0,96,0.06,,SKC,0.06,0.00,VWS V14.00,2013-06-23 07:30:00,
2013-06-23 02:35:00,69.3,68.1,29.64,East,90,6.0,11.0,96,0.08,,SKC,0.08,0.00,VWS V14.00,2013-06-23 07:35:00,
2013-06-23 02:40:00,69.3,68.1,29.63,East,90,5.0,8.0,96,0.09,,SKC,0.09,0.00,VWS V14.00,2013-06-23 07:40:00,
2013-06-23 02:45:00,69.3,68.1,29.63,East,90,5.0,10.0,96,0.10,,SKC,0.10,0.00,VWS V14.00,2013-06-23 07:45:00,
2013-06-23 02:50:00,69.3,68.1,29.63,ESE,112,6.0,11.0,96,0.11,,SKC,0.11,0.00,VWS V14.00,2013-06-23 07:50:00,
2013-06-23 02:55:00,69.3,68.1,29.62,East,90,4.0,9.0,96,0.12,,SKC,0.13,0.00,VWS V14.00,2013-06-23 07:55:00,
2013-06-23 03:00:00,69.2,68.3,29.63,East,90,5.0,10.0,97,0.12,,SKC,0.14,0.00,VWS V14.00,2013-06-23 08:00:00,
2013-06-23 03:05:00,69.2,68.3,29.62,East,90,4.0,10.0,97,0.12,,SKC,0.15,0.00,VWS V14.00,2013-06-23 08:05:00,
2013-06-23 03:10:00,69.2,68.3,29.63,ESE,112,4.0,9.0,97,0.13,,SKC,0.16,0.00,VWS V14.00,2013-06-23 08:10:00,
2013-06-23 03:15:00,69.2,68.3,29.63,ESE,112,4.0,7.0,97,0.12,,SKC,0.16,0.00,VWS V14.00,2013-06-23 08:15:00,
2013-06-23 03:20:00,69.2,68.3,29.63,ESE,112,6.0,12.0,97,0.14,,SKC,0.18,0.00,VWS V14.00,2013-06-23 08:20:00,
2013-06-23 03:25:00,69.2,68.3,29.61,ESE,112,4.0,7.0,97,0.16,,SKC,0.20,0.00,VWS V14.00,2013-06-23 08:25:00,
2013-06-23 03:30:00,69.1,68.2,29.60,ESE,112,6.0,11.0,97,0.15,,SKC,0.20,0.00,VWS V14.00,2013-06-23 08:30:00,
2013-06-23 03:35:00,69.0,68.1,29.59,East,90,5.0,10.0,97,0.15,,SKC,0.21,0.00,VWS V14.00,2013-06-23 08:35:00,
2013-06-23 03:40:00,69.0,68.1,29.59,East,90,4.0,8.0,97,0.13,,SKC,0.21,0.00,VWS V14.00,2013-06-23 08:40:00,
2013-06-23 03:45:00,69.0,68.1,29.61,SE,135,2.0,6.0,97,0.12,,SKC,0.21,0.00,VWS V14.00,2013-06-23 08:45:00,
2013-06-23 03:50:00,69.0,68.1,29.61,SE,135,4.0,12.0,97,0.13,,SKC,0.23,0.00,VWS V14.00,2013-06-23 08:50:00,
2013-06-23 03:55:00,68.8,67.9,29.60,ESE,112,6.0,14.0,97,0.16,,SKC,0.27,0.00,VWS V14.00,2013-06-23 08:55:00,
2013-06-23 04:00:00,68.6,67.7,29.59,ESE,112,3.0,12.0,97,0.16,,SKC,0.29,0.00,VWS V14.00,2013-06-23 09:00:00,
2013-06-23 04:05:00,68.4,67.2,29.63,SW,225,4.0,9.0,96,0.15,,SKC,0.29,0.00,VWS V14.00,2013-06-23 09:05:00,
2013-06-23 04:10:00,68.3,67.4,29.63,West,270,4.0,10.0,97,0.14,,SKC,0.29,0.00,VWS V14.00,2013-06-23 09:10:00,
2013-06-23 04:15:00,68.3,67.1,29.60,West,270,0.0,2.0,96,0.27,,SKC,0.43,0.00,VWS V14.00,2013-06-23 09:15:00,
2013-06-23 04:20:00,68.3,67.4,29.63,West,270,2.0,11.0,97,0.37,,SKC,0.53,0.00,VWS V14.00,2013-06-23 09:20:00,
2013-06-23 04:25:00,68.2,67.0,29.62,West,270,3.0,7.0,96,0.40,,SKC,0.58,0.00,VWS V14.00,2013-06-23 09:25:00,
2013-06-23 04:30:00,67.9,66.7,29.62,West,270,2.0,6.0,96,0.50,,SKC,0.70,0.00,VWS V14.00,2013-06-23 09:30:00,
2013-06-23 04:35:00,67.4,65.9,29.61,West,270,2.0,4.0,95,0.54,,SKC,0.74,0.00,VWS V14.00,2013-06-23 09:35:00,
2013-06-23 04:40:00,67.0,65.5,29.59,NW,315,0.0,3.0,95,0.62,,SKC,0.83,0.00,VWS V14.00,2013-06-23 09:40:00,
2013-06-23 04:45:00,66.7,65.2,29.60,NW,315,1.0,4.0,95,0.64,,SKC,0.85,0.00,VWS V14.00,2013-06-23 09:45:00,
2013-06-23 04:50:00,66.5,65.3,29.63,WSW,248,2.0,5.0,96,0.66,,SKC,0.87,0.00,VWS V14.00,2013-06-23 09:50:00,
2013-06-23 04:55:00,66.3,65.1,29.65,WSW,248,0.0,3.0,96,0.65,,SKC,0.88,0.00,VWS V14.00,2013-06-23 09:55:00,
2013-06-23 05:00:00,66.3,65.1,29.66,SW,225,4.0,7.0,96,0.63,,SKC,0.90,0.00,VWS V14.00,2013-06-23 10:00:00,
2013-06-23 05:05:00,66.3,65.1,29.63,WNW,292,1.0,3.0,96,0.64,,SKC,0.93,0.00,VWS V14.00,2013-06-23 10:05:00,
2013-06-23 05:10:00,66.3,65.1,29.61,ENE,68,0.0,3.0,96,0.66,,SKC,0.95,0.00,VWS V14.00,2013-06-23 10:10:00,
2013-06-23 05:15:00,66.3,65.1,29.60,East,90,0.0,3.0,96,0.66,,SKC,0.95,0.00,VWS V14.00,2013-06-23 10:15:00,
2013-06-23 05:20:00,66.2,65.0,29.57,NE,45,0.0,2.0,96,0.52,,SKC,0.95,0.00,VWS V14.00,2013-06-23 10:20:00,
2013-06-23 05:25:00,66.2,65.0,29.55,ENE,68,0.0,3.0,96,0.42,,SKC,0.95,0.00,VWS V14.00,2013-06-23 10:25:00,
2013-06-23 05:30:00,66.3,65.4,29.52,East,90,1.0,6.0,97,0.38,,SKC,0.96,0.00,VWS V14.00,2013-06-23 10:30:00,
2013-06-23 05:35:00,66.3,65.4,29.51,NE,45,2.0,6.0,97,0.26,,SKC,0.96,0.00,VWS V14.00,2013-06-23 10:35:00,
2013-06-23 05:40:00,66.3,65.4,29.50,ENE,68,2.0,10.0,97,0.22,,SKC,0.96,0.00,VWS V14.00,2013-06-23 10:40:00,
2013-06-23 05:45:00,66.1,65.2,29.48,ENE,68,4.0,12.0,97,0.13,,SKC,0.96,0.00,VWS V14.00,2013-06-23 10:45:00,
2013-06-23 05:50:00,65.5,64.3,29.42,NNE,22,5.0,12.0,96,0.11,,SKC,0.96,0.00,VWS V14.00,2013-06-23 10:50:00,
2013-06-23 05:55:00,64.9,63.4,29.40,NNE,22,5.0,14.0,95,0.09,,SKC,0.96,0.00,VWS V14.00,2013-06-23 10:55:00,
2013-06-23 06:00:00,64.5,63.3,29.43,ENE,68,4.0,12.0,96,0.08,,SKC,0.96,0.00,VWS V14.00,2013-06-23 11:00:00,
2013-06-23 06:05:00,64.3,63.1,29.50,ESE,112,3.0,6.0,96,0.06,,SKC,0.96,0.00,VWS V14.00,2013-06-23 11:05:00,
2013-06-23 06:10:00,64.2,62.7,29.58,SE,135,9.0,17.0,95,0.03,,SKC,0.96,0.00,VWS V14.00,2013-06-23 11:10:00,
2013-06-23 06:15:00,64.5,63.3,29.59,SE,135,12.0,20.0,96,0.01,,SKC,0.96,0.00,VWS V14.00,2013-06-23 11:15:00,
2013-06-23 06:20:00,64.7,63.2,29.59,SE,135,8.0,16.0,95,0.01,,SKC,0.96,3.00,VWS V14.00,2013-06-23 11:20:00,
2013-06-23 06:25:00,64.8,63.3,29.59,ESE,112,7.0,12.0,95,0.01,,SKC,0.96,5.00,VWS V14.00,2013-06-23 11:25:00,
2013-06-23 06:30:00,65.0,63.5,29.59,SE,135,6.0,12.0,95,0.01,,SKC,0.96,5.00,VWS V14.00,2013-06-23 11:30:00,
2013-06-23 06:35:00,65.0,63.5,29.58,ESE,112,6.0,15.0,95,0.00,,SKC,0.96,8.00,VWS V14.00,2013-06-23 11:35:00,
2013-06-23 06:40:00,64.9,63.4,29.58,SE,135,3.0,10.0,95,0.00,,SKC,0.96,12.00,VWS V14.00,2013-06-23 11:40:00,
2013-06-23 06:45:00,65.0,63.5,29.58,SSE,158,2.0,6.0,95,0.00,,SKC,0.96,13.00,VWS V14.00,2013-06-23 11:45:00,
2013-06-23 06:50:00,65.0,63.5,29.57,SSE,158,0.0,3.0,95,0.00,,SKC,0.96,17.00,VWS V14.00,2013-06-23 11:50:00,
2013-06-23 06:55:00,65.0,63.5,29.58,SSE,158,1.0,3.0,95,0.00,,SKC,0.96,21.00,VWS V14.00,2013-06-23 11:55:00,
2013-06-23 07:00:00,64.9,63.7,29.57,SSE,158,2.0,4.0,96,0.00,,SKC,0.96,25.00,VWS V14.00,2013-06-23 12:00:00,
2013-06-23 07:05:00,65.0,63.8,29.57,WNW,292,0.0,4.0,96,0.00,,SKC,0.96,31.00,VWS V14.00,2013-06-23 12:05:00,
2013-06-23 07:10:00,65.0,63.8,29.58,SW,225,1.0,4.0,96,0.00,,SKC,0.96,35.00,VWS V14.00,2013-06-23 12:10:00,
2013-06-23 07:15:00,65.1,63.9,29.59,SSW,202,1.0,9.0,96,0.00,,SKC,0.96,40.00,VWS V14.00,2013-06-23 12:15:00,
2013-06-23 07:20:00,65.2,64.0,29.59,West,270,2.0,7.0,96,0.00,,SKC,0.96,49.00,VWS V14.00,2013-06-23 12:20:00,
2013-06-23 07:25:00,65.2,64.0,29.59,NW,315,1.0,4.0,96,0.00,,SKC,0.96,60.00,VWS V14.00,2013-06-23 12:25:00,
2013-06-23 07:30:00,65.3,64.1,29.60,West,270,1.0,3.0,96,0.00,,SKC,0.96,68.00,VWS V14.00,2013-06-23 12:30:00,
2013-06-23 07:35:00,65.3,64.1,29.60,West,270,2.0,9.0,96,0.00,,SKC,0.96,70.00,VWS V14.00,2013-06-23 12:35:00,
2013-06-23 07:40:00,65.4,64.2,29.60,WSW,248,2.0,5.0,96,0.00,,SKC,0.96,65.00,VWS V14.00,2013-06-23 12:40:00,
2013-06-23 07:45:00,65.6,64.4,29.60,SW,225,1.0,4.0,96,0.00,,SKC,0.96,65.00,VWS V14.00,2013-06-23 12:45:00,
2013-06-23 07:50:00,65.7,64.5,29.59,SW,225,1.0,4.0,96,0.00,,SKC,0.96,85.00,VWS V14.00,2013-06-23 12:50:00,
2013-06-23 07:55:00,65.9,65.0,29.59,SW,225,1.0,4.0,97,0.00,,SKC,0.96,105.00,VWS V14.00,2013-06-23 12:55:00,
2013-06-23 08:00:00,66.0,64.8,29.59,NW,315,1.0,4.0,96,0.00,,SKC,0.96,118.00,VWS V14.00,2013-06-23 13:00:00,
2013-06-23 08:05:00,66.1,64.9,29.58,NW,315,0.0,2.0,96,0.00,,SKC,0.96,121.00,VWS V14.00,2013-06-23 13:05:00,
2013-06-23 08:10:00,66.3,65.1,29.58,WSW,248,0.0,1.0,96,0.00,,SKC,0.96,120.00,VWS V14.00,2013-06-23 13:10:00,
2013-06-23 08:15:00,66.4,65.5,29.58,WSW,248,1.0,3.0,97,0.00,,SKC,0.96,113.00,VWS V14.00,2013-06-23 13:15:00,
2013-06-23 08:20:00,66.5,65.6,29.58,WSW,248,0.0,2.0,97,0.00,,SKC,0.96,113.00,VWS V14.00,2013-06-23 13:20:00,
2013-06-23 08:25:00,66.6,65.4,29.58,WSW,248,1.0,4.0,96,0.00,,SKC,0.96,124.00,VWS V14.00,2013-06-23 13:25:00,
2013-06-23 08:30:00,66.7,65.5,29.58,WSW,248,2.0,6.0,96,0.00,,SKC,0.96,149.00,VWS V14.00,2013-06-23 13:30:00,
2013-06-23 08:35:00,66.7,65.5,29.58,NW,315,2.0,5.0,96,0.00,,SKC,0.96,170.00,VWS V14.00,2013-06-23 13:35:00,
2013-06-23 08:40:00,66.8,65.6,29.59,WSW,248,3.0,7.0,96,0.00,,SKC,0.96,204.00,VWS V14.00,2013-06-23 13:40:00,
2013-06-23 08:45:00,66.9,65.7,29.59,West,270,3.0,9.0,96,0.00,,SKC,0.96,245.00,VWS V14.00,2013-06-23 13:45:00,
2013-06-23 08:50:00,67.0,65.8,29.59,WSW,248,4.0,11.0,96,0.00,,SKC,0.96,275.00,VWS V14.00,2013-06-23 13:50:00,
2013-06-23 08:55:00,67.3,66.1,29.60,West,270,4.0,10.0,96,0.00,,SKC,0.96,337.00,VWS V14.00,2013-06-23 13:55:00,
2013-06-23 09:00:00,67.6,66.1,29.60,WSW,248,5.0,12.0,95,0.00,,SKC,0.96,360.00,VWS V14.00,2013-06-23 14:00:00,
2013-06-23 09:05:00,67.9,66.1,29.61,WSW,248,6.0,11.0,94,0.00,,SKC,0.96,376.00,VWS V14.00,2013-06-23 14:05:00,
2013-06-23 09:10:00,68.3,66.5,29.60,SW,225,6.0,13.0,94,0.00,,SKC,0.96,543.00,VWS V14.00,2013-06-23 14:10:00,
2013-06-23 09:15:00,68.7,66.6,29.60,WSW,248,5.0,10.0,93,0.00,,SKC,0.96,646.00,VWS V14.00,2013-06-23 14:15:00,
2013-06-23 09:20:00,69.0,66.6,29.61,SW,225,6.0,11.0,92,0.00,,SKC,0.96,491.00,VWS V14.00,2013-06-23 14:20:00,
2013-06-23 09:25:00,69.2,66.2,29.61,WSW,248,6.0,13.0,90,0.00,,SKC,0.96,275.00,VWS V14.00,2013-06-23 14:25:00,
2013-06-23 09:30:00,69.3,66.2,29.61,WSW,248,6.0,14.0,90,0.00,,SKC,0.96,310.00,VWS V14.00,2013-06-23 14:30:00,
2013-06-23 09:35:00,69.4,66.0,29.62,SW,225,6.0,14.0,89,0.00,,SKC,0.96,557.00,VWS V14.00,2013-06-23 14:35:00,
2013-06-23 09:40:00,69.4,66.0,29.61,WSW,248,9.0,19.0,89,0.00,,SKC,0.96,280.00,VWS V14.00,2013-06-23 14:40:00,
2013-06-23 09:45:00,69.4,66.0,29.60,SW,225,6.0,16.0,89,0.00,,SKC,0.96,315.00,VWS V14.00,2013-06-23 14:45:00,
2013-06-23 09:50:00,69.4,66.0,29.61,WSW,248,7.0,15.0,89,0.00,,SKC,0.96,224.00,VWS V14.00,2013-06-23 14:50:00,
2013-06-23 09:55:00,69.3,65.6,29.61,WSW,248,8.0,16.0,88,0.00,,SKC,0.96,285.00,VWS V14.00,2013-06-23 14:55:00,
2013-06-23 10:00:00,69.4,66.0,29.61,WSW,248,5.0,14.0,89,0.00,,SKC,0.96,266.00,VWS V14.00,2013-06-23 15:00:00,
2013-06-23 10:05:00,69.3,65.6,29.61,SW,225,6.0,15.0,88,0.00,,SKC,0.96,259.00,VWS V14.00,2013-06-23 15:05:00,
2013-06-23 10:10:00,69.4,65.7,29.61,SW,225,5.0,12.0,88,0.00,,SKC,0.96,717.00,VWS V14.00,2013-06-23 15:10:00,
2013-06-23 10:15:00,69.7,66.0,29.61,SW,225,7.0,13.0,88,0.00,,SKC,0.96,587.00,VWS V14.00,2013-06-23 15:15:00,
2013-06-23 10:20:00,70.0,65.6,29.61,SW,225,7.0,13.0,86,0.00,,SKC,0.96,569.00,VWS V14.00,2013-06-23 15:20:00,
2013-06-23 10:25:00,70.4,66.0,29.61,West,270,5.0,12.0,86,0.00,,SKC,0.96,629.00,VWS V14.00,2013-06-23 15:25:00,
2013-06-23 10:30:00,70.8,65.7,29.62,West,270,7.0,16.0,84,0.00,,SKC,0.96,652.00,VWS V14.00,2013-06-23 15:30:00,
2013-06-23 10:44:00,71.8,66.4,29.62,WSW,256,10.0,12.0,83,0.00,,SKC,0.96,751.00,VWS V14.00,2013-06-23 15:44:00,
2013-06-23 10:49:00,72.2,66.8,29.62,WSW,254,3.0,6.0,83,0.00,,SKC,0.96,742.00,VWS V14.00,2013-06-23 15:49:00,
2013-06-23 10:54:00,72.6,67.5,29.63,SW,232,7.0,7.0,84,0.00,,SKC,0.96,729.00,VWS V14.00,2013-06-23 15:54:00,
2013-06-23 11:00:00,73.0,67.2,29.63,West,264,1.0,10.0,82,0.00,,SKC,0.96,791.00,VWS V14.00,2013-06-23 16:00:00,
2013-06-23 11:05:00,73.1,67.3,29.63,WNW,295,5.0,11.0,82,0.00,,SKC,0.96,547.00,VWS V14.00,2013-06-23 16:05:00,
2013-06-23 11:10:00,73.1,66.9,29.63,West,269,5.0,14.0,81,0.00,,SKC,0.96,1020.00,VWS V14.00,2013-06-23 16:10:00,
2013-06-23 11:15:00,73.2,67.4,29.63,West,265,17.0,19.0,82,0.00,,SKC,0.96,865.00,VWS V14.00,2013-06-23 16:15:00,
2013-06-23 11:20:00,73.4,67.2,29.63,South,190,4.0,11.0,81,0.00,,SKC,0.96,861.00,VWS V14.00,2013-06-23 16:20:00,
2013-06-23 11:25:00,73.6,67.8,29.63,WSW,243,5.0,6.0,82,0.00,,SKC,0.96,838.00,VWS V14.00,2013-06-23 16:25:00,
2013-06-23 11:30:00,74.0,67.4,29.64,WSW,242,4.0,15.0,80,0.00,,SKC,0.96,858.00,VWS V14.00,2013-06-23 16:30:00,
2013-06-23 11:35:00,74.2,68.0,29.64,West,263,10.0,10.0,81,0.00,,SKC,0.96,853.00,VWS V14.00,2013-06-23 16:35:00,
2013-06-23 11:40:00,74.6,69.1,29.64,SW,227,10.0,10.0,83,0.00,,SKC,0.96,902.00,VWS V14.00,2013-06-23 16:40:00,
2013-06-23 11:45:00,74.8,68.2,29.64,West,273,5.0,12.0,80,0.00,,SKC,0.96,988.00,VWS V14.00,2013-06-23 16:45:00,
2013-06-23 11:50:00,75.1,68.2,29.64,SW,221,5.0,13.0,79,0.00,,SKC,0.96,951.00,VWS V14.00,2013-06-23 16:50:00,
2013-06-23 11:55:00,75.1,67.8,29.64,WSW,244,3.0,12.0,78,0.00,,SKC,0.96,921.00,VWS V14.00,2013-06-23 16:55:00,
2013-06-23 11:57:00,75.2,68.6,29.64,WSW,237,3.0,12.0,80,0.00,,SKC,0.96,838.00,VWS V14.00,2013-06-23 16:57:00,
2013-06-23 11:58:00,75.2,68.2,29.64,SW,221,3.0,12.0,79,0.00,,SKC,0.96,830.00,VWS V14.00,2013-06-23 16:58:00,
2013-06-23 12:01:00,75.3,68.3,29.65,SSW,210,6.0,15.0,79,0.00,,SKC,0.96,830.00,VWS V14.00,2013-06-23 17:01:00,
2013-06-23 12:03:00,75.3,68.0,29.64,SW,228,4.0,15.0,78,0.00,,SKC,0.96,684.00,VWS V14.00,2013-06-23 17:03:00,
2013-06-23 12:08:00,75.2,67.5,29.64,SW,228,4.0,11.0,77,0.00,,SKC,0.96,596.00,VWS V14.00,2013-06-23 17:08:00,
2013-06-23 12:13:00,75.1,67.4,29.64,SSW,209,1.0,14.0,77,0.00,,SKC,0.96,853.00,VWS V14.00,2013-06-23 17:13:00,
2013-06-23 12:18:00,75.1,67.8,29.65,West,273,4.0,14.0,78,0.00,,SKC,0.96,796.00,VWS V14.00,2013-06-23 17:18:00,
2013-06-23 12:23:00,75.2,67.9,29.65,SW,228,6.0,20.0,78,0.00,,SKC,0.96,997.00,VWS V14.00,2013-06-23 17:23:00,
2013-06-23 12:28:00,75.6,68.6,29.65,SW,217,4.0,10.0,79,0.00,,SKC,0.96,939.00,VWS V14.00,2013-06-23 17:28:00,
2013-06-23 12:33:00,75.9,68.2,29.65,SSW,211,4.0,13.0,77,0.00,,SKC,0.96,1051.00,VWS V14.00,2013-06-23 17:33:00,
2013-06-23 12:38:00,76.1,68.4,29.65,SW,231,4.0,11.0,77,0.00,,SKC,0.96,983.00,VWS V14.00,2013-06-23 17:38:00,
2013-06-23 12:43:00,76.2,68.5,29.65,WSW,256,10.0,12.0,77,0.00,,SKC,0.96,909.00,VWS V14.00,2013-06-23 17:43:00,
2013-06-23 12:48:00,76.3,68.6,29.65,WSW,238,9.0,11.0,77,0.00,,SKC,0.96,1000.00,VWS V14.00,2013-06-23 17:48:00,
2013-06-23 12:53:00,76.3,67.8,29.66,SW,214,7.0,15.0,75,0.00,,SKC,0.96,984.00,VWS V14.00,2013-06-23 17:53:00,
2013-06-23 12:58:00,76.2,67.7,29.66,West,268,8.0,15.0,75,0.00,,SKC,0.96,960.00,VWS V14.00,2013-06-23 17:58:00,
2013-06-23 13:03:00,76.2,67.3,29.66,WSW,257,4.0,13.0,74,0.00,,SKC,0.96,1056.00,VWS V14.00,2013-06-23 18:03:00,
2013-06-23 13:08:00,76.4,67.9,29.66,West,269,7.0,14.0,75,0.00,,SKC,0.96,1039.00,VWS V14.00,2013-06-23 18:08:00,
2013-06-23 13:13:00,76.4,67.1,29.66,WSW,246,9.0,14.0,73,0.00,,SKC,0.96,283.00,VWS V14.00,2013-06-23 18:13:00,
2013-06-23 13:18:00,76.0,67.1,29.66,WSW,241,6.0,16.0,74,0.00,,SKC,0.96,761.00,VWS V14.00,2013-06-23 18:18:00,
2013-06-23 13:23:00,75.6,67.1,29.67,SW,225,4.0,11.0,75,0.00,,SKC,0.96,599.00,VWS V14.00,2013-06-23 18:23:00,
2013-06-23 13:28:00,75.7,66.8,29.67,SW,232,5.0,13.0,74,0.00,,SKC,0.96,1085.00,VWS V14.00,2013-06-23 18:28:00,
2013-06-23 13:33:00,76.0,66.7,29.67,WSW,241,6.0,12.0,73,0.00,,SKC,0.96,353.00,VWS V14.00,2013-06-23 18:33:00,
2013-06-23 13:38:00,76.1,67.6,29.67,West,263,7.0,11.0,75,0.00,,SKC,0.96,427.00,VWS V14.00,2013-06-23 18:38:00,
2013-06-23 13:43:00,76.1,67.2,29.67,WSW,239,8.0,13.0,74,0.00,,SKC,0.96,940.00,VWS V14.00,2013-06-23 18:43:00,
2013-06-23 13:48:00,76.1,66.4,29.67,South,184,6.0,17.0,72,0.00,,SKC,0.96,793.00,VWS V14.00,2013-06-23 18:48:00,
2013-06-23 13:53:00,76.0,67.1,29.67,West,263,10.0,14.0,74,0.00,,SKC,0.96,717.00,VWS V14.00,2013-06-23 18:53:00,
2013-06-23 13:58:00,76.2,66.5,29.68,WSW,240,9.0,13.0,72,0.00,,SKC,0.96,1046.00,VWS V14.00,2013-06-23 18:58:00,
2013-06-23 14:03:00,76.6,67.3,29.67,SW,219,2.0,13.0,73,0.00,,SKC,0.96,1021.00,VWS V14.00,2013-06-23 19:03:00,
2013-06-23 14:08:00,76.8,67.9,29.68,WSW,254,6.0,13.0,74,0.00,,SKC,0.96,1102.00,VWS V14.00,2013-06-23 19:08:00,
2013-06-23 14:13:00,76.9,66.8,29.68,WSW,257,5.0,14.0,71,0.00,,SKC,0.96,1048.00,VWS V14.00,2013-06-23 19:13:00,
2013-06-23 14:18:00,77.0,67.3,29.67,WSW,250,10.0,16.0,72,0.00,,SKC,0.96,1009.00,VWS V14.00,2013-06-23 19:18:00,
2013-06-23 14:23:00,77.1,67.0,29.67,West,267,6.0,16.0,71,0.00,,SKC,0.96,868.00,VWS V14.00,2013-06-23 19:23:00,
2013-06-23 14:28:00,77.1,67.0,29.68,West,273,3.0,11.0,71,0.00,,SKC,0.96,875.00,VWS V14.00,2013-06-23 19:28:00,
2013-06-23 14:33:00,77.2,67.5,29.68,WNW,287,3.0,12.0,72,0.00,,SKC,0.96,596.00,VWS V14.00,2013-06-23 19:33:00,
2013-06-23 14:38:00,77.3,67.6,29.68,SW,223,5.0,12.0,72,0.00,,SKC,0.96,483.00,VWS V14.00,2013-06-23 19:38:00,
2013-06-23 14:43:00,77.3,67.6,29.68,SW,227,3.0,12.0,72,0.00,,SKC,0.96,506.00,VWS V14.00,2013-06-23 19:43:00,
2013-06-23 14:48:00,77.5,67.4,29.68,WSW,254,8.0,11.0,71,0.00,,SKC,0.96,842.00,VWS V14.00,2013-06-23 19:48:00,
2013-06-23 14:53:00,77.5,67.8,29.67,WSW,249,7.0,11.0,72,0.00,,SKC,0.96,367.00,VWS V14.00,2013-06-23 19:53:00,
2013-06-23 14:58:00,77.4,66.9,29.68,SW,215,9.0,13.0,70,0.00,,SKC,0.96,524.00,VWS V14.00,2013-06-23 19:58:00,
2013-06-23 15:03:00,77.4,67.7,29.68,SW,221,3.0,15.0,72,0.00,,SKC,0.96,1009.00,VWS V14.00,2013-06-23 20:03:00,
2013-06-23 15:08:00,77.6,66.2,29.68,SW,230,7.0,12.0,68,0.00,,SKC,0.96,849.00,VWS V14.00,2013-06-23 20:08:00,
2013-06-23 15:13:00,77.6,66.2,29.68,WNW,283,7.0,10.0,68,0.00,,SKC,0.96,817.00,VWS V14.00,2013-06-23 20:13:00,
2013-06-23 15:18:00,77.8,67.2,29.68,West,267,1.0,7.0,70,0.00,,SKC,0.96,325.00,VWS V14.00,2013-06-23 20:18:00,
2013-06-23 15:23:00,77.9,66.9,29.68,SW,223,5.0,9.0,69,0.00,,SKC,0.96,287.00,VWS V14.00,2013-06-23 20:23:00,
2013-06-23 15:28:00,77.8,67.2,29.68,SE,135,2.0,8.0,70,0.00,,SKC,0.96,378.00,VWS V14.00,2013-06-23 20:28:00,
2013-06-23 15:33:00,78.0,67.8,29.68,SW,232,3.0,10.0,71,0.00,,SKC,0.96,909.00,VWS V14.00,2013-06-23 20:33:00,
2013-06-23 15:38:00,78.3,65.6,29.68,WSW,248,10.0,12.0,65,0.00,,SKC,0.96,875.00,VWS V14.00,2013-06-23 20:38:00,
2013-06-23 15:43:00,78.6,65.9,29.69,SSW,211,4.0,10.0,65,0.00,,SKC,0.96,744.00,VWS V14.00,2013-06-23 20:43:00,
2013-06-23 15:48:00,78.8,66.1,29.69,NW,304,6.0,14.0,65,0.00,,SKC,0.96,772.00,VWS V14.00,2013-06-23 20:48:00,
2013-06-23 15:53:00,79.0,65.3,29.68,WNW,295,12.0,12.0,63,0.00,,SKC,0.96,870.00,VWS V14.00,2013-06-23 20:53:00,
2013-06-23 15:58:00,79.2,66.0,29.69,SSW,202,1.0,12.0,64,0.00,,SKC,0.96,861.00,VWS V14.00,2013-06-23 20:58:00,
2013-06-23 16:03:00,79.3,66.1,29.69,WNW,301,4.0,12.0,64,0.00,,SKC,0.96,838.00,VWS V14.00,2013-06-23 21:03:00,
2013-06-23 16:08:00,79.3,67.0,29.69,SW,232,6.0,13.0,66,0.00,,SKC,0.96,863.00,VWS V14.00,2013-06-23 21:08:00,
2013-06-23 16:13:00,79.4,67.5,29.69,SW,223,3.0,11.0,67,0.00,,SKC,0.96,870.00,VWS V14.00,2013-06-23 21:13:00,
2013-06-23 16:18:00,79.4,66.2,29.69,WNW,301,3.0,12.0,64,0.00,,SKC,0.96,819.00,VWS V14.00,2013-06-23 21:18:00,
2013-06-23 16:23:00,79.5,66.7,29.69,NW,319,3.0,11.0,65,0.00,,SKC,0.96,738.00,VWS V14.00,2013-06-23 21:23:00,
2013-06-23 16:28:00,79.7,67.3,29.69,WSW,252,6.0,7.0,66,0.00,,SKC,0.96,772.00,VWS V14.00,2013-06-23 21:28:00,
2013-06-23 16:33:00,79.8,66.6,29.69,NNW,332,3.0,10.0,64,0.00,,SKC,0.96,809.00,VWS V14.00,2013-06-23 21:33:00,
2013-06-23 16:38:00,79.6,66.4,29.69,WSW,251,2.0,10.0,64,0.00,,SKC,0.96,798.00,VWS V14.00,2013-06-23 21:38:00,
2013-06-23 16:43:00,79.6,67.2,29.69,SW,217,6.0,10.0,66,0.00,,SKC,0.96,729.00,VWS V14.00,2013-06-23 21:43:00,
2013-06-23 16:48:00,79.6,66.8,29.68,SW,223,5.0,11.0,65,0.00,,SKC,0.96,731.00,VWS V14.00,2013-06-23 21:48:00,
2013-06-23 16:53:00,79.7,66.9,29.69,SW,228,3.0,9.0,65,0.00,,SKC,0.96,805.00,VWS V14.00,2013-06-23 21:53:00,
2013-06-23 16:58:00,79.8,67.0,29.68,NW,304,4.0,12.0,65,0.00,,SKC,0.96,640.00,VWS V14.00,2013-06-23 21:58:00,
2013-06-23 17:03:00,79.9,65.7,29.69,WSW,240,5.0,10.0,62,0.00,,SKC,0.96,719.00,VWS V14.00,2013-06-23 22:03:00,
2013-06-23 17:08:00,80.1,65.9,29.69,WSW,247,0.0,9.0,62,0.00,,SKC,0.96,738.00,VWS V14.00,2013-06-23 22:08:00,
2013-06-23 17:13:00,80.3,66.1,29.69,West,261,4.0,11.0,62,0.00,,SKC,0.96,708.00,VWS V14.00,2013-06-23 22:13:00,
2013-06-23 17:18:00,80.3,65.6,29.69,SW,215,4.0,10.0,61,0.00,,SKC,0.96,127.00,VWS V14.00,2013-06-23 22:18:00,
2013-06-23 17:23:00,80.2,66.9,29.69,WSW,245,0.0,6.0,64,0.00,,SKC,0.96,714.00,VWS V14.00,2013-06-23 22:23:00,
2013-06-23 17:28:00,80.3,65.2,29.70,SSW,211,3.0,6.0,60,0.00,,SKC,0.96,691.00,VWS V14.00,2013-06-23 22:28:00,
2013-06-23 17:33:00,80.5,65.3,29.70,West,261,6.0,11.0,60,0.00,,SKC,0.96,668.00,VWS V14.00,2013-06-23 22:33:00,
2013-06-23 17:38:00,80.7,66.0,29.69,WSW,254,6.0,10.0,61,0.00,,SKC,0.96,647.00,VWS V14.00,2013-06-23 22:38:00,
2013-06-23 17:43:00,80.5,65.3,29.69,SW,221,3.0,10.0,60,0.00,,SKC,0.96,643.00,VWS V14.00,2013-06-23 22:43:00,
2013-06-23 17:48:00,80.4,65.7,29.69,WSW,239,6.0,11.0,61,0.00,,SKC,0.96,619.00,VWS V14.00,2013-06-23 22:48:00,
2013-06-23 17:53:00,80.3,64.2,29.70,SW,229,5.0,10.0,58,0.00,,SKC,0.96,601.00,VWS V14.00,2013-06-23 22:53:00,
2013-06-23 17:58:00,80.1,63.5,29.70,WSW,246,1.0,11.0,57,0.00,,SKC,0.96,538.00,VWS V14.00,2013-06-23 22:58:00,
2013-06-23 18:03:00,80.2,64.6,29.70,West,265,4.0,11.0,59,0.00,,SKC,0.96,520.00,VWS V14.00,2013-06-23 23:03:00,
2013-06-23 18:08:00,80.1,64.0,29.70,West,275,6.0,15.0,58,0.00,,SKC,0.96,510.00,VWS V14.00,2013-06-23 23:08:00,
2013-06-23 18:15:00,79.7,64.6,29.70,West,271,2.0,6.0,60,0.00,,SKC,0.96,485.00,VWS V14.00,2013-06-23 23:15:00,
2013-06-23 18:20:00,79.5,63.4,29.70,SW,219,3.0,12.0,58,0.00,,SKC,0.96,455.00,VWS V14.00,2013-06-23 23:20:00,
2013-06-23 18:25:00,79.5,63.0,29.70,West,259,4.0,5.0,57,0.00,,SKC,0.96,427.00,VWS V14.00,2013-06-23 23:25:00,
2013-06-23 18:30:00,79.5,63.9,29.70,NW,325,5.0,10.0,59,0.00,,SKC,0.96,417.00,VWS V14.00,2013-06-23 23:30:00,
2013-06-23 18:35:00,79.6,63.0,29.70,NW,321,0.0,7.0,57,0.00,,SKC,0.96,410.00,VWS V14.00,2013-06-23 23:35:00,
2013-06-23 18:40:00,79.7,63.1,29.71,SW,225,7.0,12.0,57,0.00,,SKC,0.96,394.00,VWS V14.00,2013-06-23 23:40:00,
2013-06-23 18:45:00,79.7,63.1,29.71,WNW,284,3.0,10.0,57,0.00,,SKC,0.96,378.00,VWS V14.00,2013-06-23 23:45:00,
2013-06-23 18:50:00,79.6,63.0,29.71,WNW,298,3.0,12.0,57,0.00,,SKC,0.96,364.00,VWS V14.00,2013-06-23 23:50:00,
2013-06-23 18:55:00,79.6,63.5,29.71,SW,232,4.0,5.0,58,0.00,,SKC,0.96,241.00,VWS V14.00,2013-06-23 23:55:00,
2013-06-23 19:00:00,79.6,63.5,29.71,WSW,253,5.0,7.0,58,0.00,,SKC,0.96,338.00,VWS V14.00,2013-06-24 00:00:00,
2013-06-23 19:05:00,79.6,65.0,29.71,SW,220,2.0,4.0,61,0.00,,SKC,0.96,306.00,VWS V14.00,2013-06-24 00:05:00,
2013-06-23 19:10:00,79.7,64.1,29.72,West,264,1.0,7.0,59,0.00,,SKC,0.96,294.00,VWS V14.00,2013-06-24 00:10:00,
2013-06-23 19:15:00,79.8,64.2,29.72,NW,304,1.0,5.0,59,0.00,,SKC,0.96,299.00,VWS V14.00,2013-06-24 00:15:00,
2013-06-23 19:20:00,79.7,64.6,29.72,WNW,290,3.0,9.0,60,0.00,,SKC,0.96,264.00,VWS V14.00,2013-06-24 00:20:00,
2013-06-23 19:25:00,79.6,64.5,29.72,SW,223,2.0,4.0,60,0.00,,SKC,0.96,243.00,VWS V14.00,2013-06-24 00:25:00,
2013-06-23 19:30:00,79.3,64.2,29.73,West,267,2.0,9.0,60,0.00,,SKC,0.96,223.00,VWS V14.00,2013-06-24 00:30:00,
2013-06-23 19:35:00,79.1,65.0,29.73,SW,221,2.0,3.0,62,0.00,,SKC,0.96,204.00,VWS V14.00,2013-06-24 00:35:00,
2013-06-23 19:40:00,78.9,64.3,29.73,West,275,0.0,6.0,61,0.00,,SKC,0.96,183.00,VWS V14.00,2013-06-24 00:40:00,
2013-06-23 19:45:00,78.8,64.7,29.73,WSW,256,2.0,4.0,62,0.00,,SKC,0.96,165.00,VWS V14.00,2013-06-24 00:45:00,
2013-06-23 19:50:00,78.7,63.7,29.73,SW,230,4.0,6.0,60,0.00,,SKC,0.96,151.00,VWS V14.00,2013-06-24 00:50:00,
2013-06-23 19:55:00,78.5,63.5,29.73,West,270,4.0,5.0,60,0.00,,SKC,0.96,134.00,VWS V14.00,2013-06-24 00:55:00,
2013-06-23 20:00:00,78.2,63.2,29.73,NW,306,5.0,7.0,60,0.00,,SKC,0.96,116.00,VWS V14.00,2013-06-24 01:00:00,
2013-06-23 20:05:00,77.9,62.9,29.74,WSW,244,1.0,9.0,60,0.00,,SKC,0.96,28.00,VWS V14.00,2013-06-24 01:05:00,
2013-06-23 20:10:00,77.5,63.5,29.74,West,269,1.0,4.0,62,0.00,,SKC,0.96,32.00,VWS V14.00,2013-06-24 01:10:00,
2013-06-23 20:15:00,77.2,63.2,29.74,West,269,3.0,6.0,62,0.00,,SKC,0.96,74.00,VWS V14.00,2013-06-24 01:15:00,
2013-06-23 20:20:00,76.9,63.4,29.74,WNW,301,1.0,6.0,63,0.00,,SKC,0.96,56.00,VWS V14.00,2013-06-24 01:20:00,
2013-06-23 20:25:00,76.6,63.5,29.74,West,277,2.0,5.0,64,0.00,,SKC,0.96,39.00,VWS V14.00,2013-06-24 01:25:00,
2013-06-23 20:30:00,76.3,63.7,29.74,West,263,2.0,3.0,65,0.00,,SKC,0.96,26.00,VWS V14.00,2013-06-24 01:30:00,
2013-06-23 20:35:00,76.0,63.4,29.74,WSW,250,1.0,5.0,65,0.00,,SKC,0.96,16.00,VWS V14.00,2013-06-24 01:35:00,
2013-06-23 20:40:00,75.6,63.0,29.74,WSW,258,0.0,5.0,65,0.00,,SKC,0.96,16.00,VWS V14.00,2013-06-24 01:40:00,
2013-06-23 20:45:00,75.3,63.2,29.74,WNW,288,2.0,3.0,66,0.00,,SKC,0.96,14.00,VWS V14.00,2013-06-24 01:45:00,
2013-06-23 20:47:00,75.2,63.5,29.74,WNW,296,0.0,4.0,67,0.00,,SKC,0.96,12.00,VWS V14.00,2013-06-24 01:47:00,
2013-06-23 20:52:00,74.9,63.2,29.74,WNW,295,0.0,2.0,67,0.00,,SKC,0.96,11.00,VWS V14.00,2013-06-24 01:52:00,
2013-06-23 20:57:00,74.6,63.3,29.74,WNW,295,0.0,2.0,68,0.00,,SKC,0.96,11.00,VWS V14.00,2013-06-24 01:57:00,
2013-06-23 21:02:00,74.3,63.5,29.74,WNW,295,2.0,2.0,69,0.00,,SKC,0.96,7.00,VWS V14.00,2013-06-24 02:02:00,
2013-06-23 21:07:00,74.1,63.3,29.74,WNW,295,0.0,1.0,69,0.00,,SKC,0.96,5.00,VWS V14.00,2013-06-24 02:07:00,
2013-06-23 21:12:00,73.8,63.4,29.74,WNW,295,0.0,2.0,70,0.00,,SKC,0.96,5.00,VWS V14.00,2013-06-24 02:12:00,
2013-06-23 21:17:00,73.6,63.2,29.74,WNW,295,0.0,0.0,70,0.00,,SKC,0.96,0.00,VWS V14.00,2013-06-24 02:17:00,
2013-06-23 21:22:00,73.3,63.3,29.74,WNW,295,0.0,2.0,71,0.00,,SKC,0.96,0.00,VWS V14.00,2013-06-24 02:22:00,
2013-06-23 21:27:00,72.9,63.0,29.73,WNW,295,0.0,1.0,71,0.00,,SKC,0.96,0.00,VWS V14.00,2013-06-24 02:27:00,
2013-06-23 21:32:00,72.7,63.2,29.74,WNW,295,0.0,2.0,72,0.00,,SKC,0.96,0.00,VWS V14.00,2013-06-24 02:32:00,
2013-06-23 21:37:00,72.3,63.2,29.74,WNW,295,0.0,1.0,73,0.00,,SKC,0.96,0.00,VWS V14.00,2013-06-24 02:37:00,
2013-06-23 21:42:00,71.9,63.2,29.74,WNW,292,1.0,3.0,74,0.00,,SKC,0.96,0.00,VWS V14.00,2013-06-24 02:42:00,
2013-06-23 21:47:00,71.6,62.9,29.74,WNW,292,0.0,1.0,74,0.00,,SKC,0.96,0.00,VWS V14.00,2013-06-24 02:47:00,
2013-06-23 21:52:00,71.3,63.0,29.74,WNW,292,0.0,1.0,75,0.00,,SKC,0.96,0.00,VWS V14.00,2013-06-24 02:52:00,
2013-06-23 21:58:00,71.1,62.8,29.75,WNW,292,0.0,1.0,75,0.00,,SKC,0.96,0.00,VWS V14.00,2013-06-24 02:58:00,
2013-06-23 22:03:00,71.0,63.1,29.75,WNW,292,0.0,1.0,76,0.00,,SKC,0.96,0.00,VWS V14.00,2013-06-24 03:03:00,
2013-06-23 22:08:00,70.8,62.9,29.75,WNW,292,1.0,3.0,76,0.00,,SKC,0.96,0.00,VWS V14.00,2013-06-24 03:08:00,
2013-06-23 22:13:00,70.6,62.7,29.75,WNW,292,0.0,2.0,76,0.00,,SKC,0.96,0.00,VWS V14.00,2013-06-24 03:13:00,
2013-06-23 22:18:00,70.5,63.0,29.76,WNW,292,0.0,0.0,77,0.00,,SKC,0.96,0.00,VWS V14.00,2013-06-24 03:18:00,
2013-06-23 22:23:00,70.3,62.8,29.76,WNW,292,0.0,2.0,77,0.00,,SKC,0.96,0.00,VWS V14.00,2013-06-24 03:23:00,
2013-06-23 22:28:00,70.2,62.7,29.76,WNW,292,2.0,2.0,77,0.00,,SKC,0.96,0.00,VWS V14.00,2013-06-24 03:28:00,
2013-06-23 22:33:00,70.1,62.6,29.76,WNW,292,1.0,1.0,77,0.00,,SKC,0.96,0.00,VWS V14.00,2013-06-24 03:33:00,
2013-06-23 22:38:00,69.9,62.4,29.76,WNW,292,0.0,3.0,77,0.00,,SKC,0.96,0.00,VWS V14.00,2013-06-24 03:38:00,
2013-06-23 22:43:00,69.7,62.5,29.76,WNW,292,0.0,1.0,78,0.00,,SKC,0.96,0.00,VWS V14.00,2013-06-24 03:43:00,
2013-06-23 22:48:00,69.3,62.5,29.76,WNW,292,0.0,0.0,79,0.00,,SKC,0.96,0.00,VWS V14.00,2013-06-24 03:48:00,
2013-06-23 22:53:00,68.8,62.0,29.76,WNW,292,0.0,0.0,79,0.00,,SKC,0.96,0.00,VWS V14.00,2013-06-24 03:53:00,
2013-06-23 22:58:00,68.5,62.1,29.76,WNW,292,0.0,0.0,80,0.00,,SKC,0.96,0.00,VWS V14.00,2013-06-24 03:58:00,
2013-06-23 23:01:00,68.3,62.2,29.76,WNW,292,0.0,0.0,81,0.00,,SKC,0.96,0.00,VWS V14.00,2013-06-24 04:01:00,
2013-06-23 23:03:00,68.2,62.2,29.76,WNW,292,0.0,0.0,81,0.00,,SKC,0.96,0.00,VWS V14.00,2013-06-24 04:03:00,
2013-06-23 23:08:00,67.8,62.1,29.76,WNW,292,0.0,0.0,82,0.00,,SKC,0.96,0.00,VWS V14.00,2013-06-24 04:08:00,
2013-06-23 23:13:00,67.4,62.1,29.76,WNW,292,0.0,0.0,83,0.00,,SKC,0.96,0.00,VWS V14.00,2013-06-24 04:13:00,
2013-06-23 23:18:00,66.9,61.9,29.76,WNW,292,1.0,2.0,84,0.00,,SKC,0.96,0.00,VWS V14.00,2013-06-24 04:18:00,
2013-06-23 23:23:00,66.6,61.6,29.76,WNW,292,1.0,1.0,84,0.00,,SKC,0.96,0.00,VWS V14.00,2013-06-24 04:23:00,
2013-06-23 23:28:00,66.4,61.8,29.76,WNW,292,0.0,1.0,85,0.00,,SKC,0.96,0.00,VWS V14.00,2013-06-24 04:28:00,
2013-06-23 23:33:00,66.3,61.7,29.77,WNW,292,0.0,1.0,85,0.00,,SKC,0.96,0.00,VWS V14.00,2013-06-24 04:33:00,
2013-06-23 23:38:00,66.4,62.1,29.77,WNW,292,0.0,1.0,86,0.00,,SKC,0.96,0.00,VWS V14.00,2013-06-24 04:38:00,
2013-06-23 23:43:00,66.3,62.0,29.77,WNW,292,0.0,1.0,86,0.00,,SKC,0.96,0.00,VWS V14.00,2013-06-24 04:43:00,
2013-06-23 23:48:00,66.3,62.3,29.77,WNW,292,0.0,1.0,87,0.00,,SKC,0.96,0.00,VWS V14.00,2013-06-24 04:48:00,
2013-06-23 23:53:00,66.2,62.2,29.77,WNW,292,0.0,2.0,87,0.00,,SKC,0.96,0.00,VWS V14.00,2013-06-24 04:53:00,
2013-06-23 23:58:00,66.1,62.1,29.77,WSW,237,1.0,2.0,87,0.00,,SKC,0.96,0.00,VWS V14.00,2013-06-24 04:58:00,